Terminal Aerodrome Forecast
Issued by NWS

Home | Current Version | Previous Version | Text Only | Print | Product List | Glossary On
Versions: 1 2 3 4 5 6 7 8 9 10 11 12 13 14 15
000
FTUS43 KAPX 262320
TAFMBL
TAF
KMBL 262320Z 2700/2724 22011KT P6SM BKN050
     FM270500 17006KT P6SM VCSH BKN022
     FM270700 16007KT 4SM -SHRA OVC012
     FM271000 15007KT P6SM VCSH OVC020
     FM271200 15007KT P6SM VCSH BKN025 WS020/17040KT
     FM271500 21009KT P6SM VCSH BKN008
     FM271800 22011G25KT P6SM OVC008
     FM272300 24010G20KT P6SM BKN018=

USA.gov is the U.S. government's official web portal to all federal, state and local government web resources and services.